createdAt,value
2023-03-06T00:00:50.016Z,87.81
2023-03-06T00:01:49.964Z,88.02
2023-03-06T00:02:49.962Z,88.23
2023-03-06T00:03:50.016Z,88.43
2023-03-06T00:04:49.951Z,88.23
2023-03-06T00:05:50.036Z,88.23
2023-03-06T00:06:49.964Z,88.12
2023-03-06T00:07:49.934Z,88.43
2023-03-06T00:08:49.933Z,88.02
2023-03-06T00:09:49.914Z,87.92
2023-03-06T00:10:49.934Z,88.02
2023-03-06T00:11:49.933Z,88.02
2023-03-06T00:12:49.904Z,87.81
2023-03-06T00:13:49.908Z,87.92
2023-03-06T00:14:49.905Z,87.50
2023-03-06T00:15:49.958Z,86.42
2023-03-06T00:16:49.902Z,86.73
2023-03-06T00:17:49.878Z,87.04
2023-03-06T00:18:49.869Z,86.83
2023-03-06T00:19:49.867Z,86.42
2023-03-06T00:20:49.862Z,86.63
2023-03-06T00:22:56.863Z,86.00
2023-03-06T00:23:49.838Z,85.80
2023-03-06T00:24:49.835Z,86.11
2023-03-06T00:25:49.835Z,86.63
2023-03-06T00:26:49.847Z,86.63
2023-03-06T00:27:49.830Z,86.32
2023-03-06T00:28:49.805Z,86.46
2023-03-06T00:29:49.807Z,86.98
2023-03-06T00:30:49.796Z,86.25
2023-03-06T00:31:49.921Z,87.40
2023-03-06T00:32:49.832Z,87.71
2023-03-06T00:33:49.800Z,88.02
2023-03-06T00:34:49.772Z,87.40
2023-03-06T00:35:49.837Z,86.63
2023-03-06T00:36:49.772Z,86.73
2023-03-06T00:37:49.750Z,86.98
2023-03-06T00:38:49.772Z,87.08
2023-03-06T00:39:49.747Z,88.12
2023-03-06T00:40:49.740Z,87.50
2023-03-06T00:41:49.734Z,87.50
2023-03-06T00:42:49.759Z,86.46
2023-03-06T00:43:49.712Z,86.46
2023-03-06T00:44:49.743Z,86.42
2023-03-06T00:45:49.710Z,86.63
2023-03-06T00:46:49.700Z,86.63
2023-03-06T00:47:49.703Z,86.42
2023-03-06T00:48:49.700Z,85.90
2023-03-06T00:49:49.677Z,86.11
2023-03-06T00:50:49.703Z,86.46
2023-03-06T00:51:49.717Z,86.73
2023-03-06T00:52:49.674Z,86.11
2023-03-06T00:53:49.659Z,85.69
2023-03-06T00:54:49.659Z,86.17
2023-03-06T00:55:49.645Z,86.21
2023-03-06T00:56:49.631Z,86.46
2023-03-06T00:57:49.668Z,86.83
2023-03-06T00:58:49.629Z,86.94
2023-03-06T00:59:49.634Z,86.57
2023-03-06T01:00:49.647Z,86.83
2023-03-06T01:01:49.659Z,86.73
2023-03-06T01:02:49.597Z,87.08
2023-03-06T01:03:49.641Z,86.57
2023-03-06T01:04:49.602Z,87.60
2023-03-06T01:05:49.601Z,87.60
2023-03-06T01:06:49.584Z,87.40
2023-03-06T01:07:49.575Z,88.06
2023-03-06T01:08:49.581Z,88.68
2023-03-06T01:09:49.598Z,88.58
2023-03-06T01:10:49.564Z,88.48
2023-03-06T01:11:49.557Z,88.27
2023-03-06T01:12:49.616Z,88.17
2023-03-06T01:13:49.526Z,88.79
2023-03-06T01:14:49.521Z,89.56
2023-03-06T01:15:49.515Z,89.56
2023-03-06T01:16:49.512Z,89.66
2023-03-06T01:17:49.507Z,89.66
2023-03-06T01:18:49.528Z,89.87
2023-03-06T01:19:49.488Z,89.66
2023-03-06T01:20:49.478Z,89.76
2023-03-06T01:21:49.527Z,89.76
2023-03-06T01:22:49.474Z,89.52
2023-03-06T01:23:49.469Z,89.98
2023-03-06T01:24:49.459Z,89.00
2023-03-06T01:25:49.458Z,88.89
2023-03-06T01:26:49.446Z,88.27
2023-03-06T01:27:49.447Z,88.58
2023-03-06T01:28:49.439Z,88.68
2023-03-06T01:29:49.451Z,88.68
2023-03-06T01:30:49.437Z,89.00
2023-03-06T01:31:49.420Z,88.58
2023-03-06T01:32:49.411Z,88.06
2023-03-06T01:33:49.392Z,88.02
2023-03-06T01:34:49.441Z,87.71
2023-03-06T01:35:49.448Z,87.71
2023-03-06T01:36:49.397Z,88.23
2023-03-06T01:37:49.401Z,88.02
2023-03-06T01:38:49.369Z,88.12
2023-03-06T01:39:49.376Z,87.71
2023-03-06T01:40:49.364Z,87.92
2023-03-06T01:41:49.347Z,87.50
2023-03-06T01:42:49.354Z,87.40
2023-03-06T01:43:49.385Z,87.66
2023-03-06T01:44:49.333Z,86.98
2023-03-06T01:45:49.414Z,87.46
2023-03-06T01:46:49.317Z,87.60
2023-03-06T01:47:49.323Z,88.23
2023-03-06T01:48:49.335Z,87.50
2023-03-06T01:49:49.302Z,87.50
2023-03-06T01:50:49.290Z,87.71
2023-03-06T01:51:49.326Z,87.40
2023-03-06T01:52:49.268Z,88.02
2023-03-06T01:53:49.266Z,88.12
2023-03-06T01:54:49.280Z,88.27
2023-03-06T01:55:49.248Z,88.54
2023-03-06T01:56:49.245Z,88.10
2023-03-06T01:57:49.237Z,89.62
2023-03-06T01:58:49.250Z,89.20
2023-03-06T01:59:49.227Z,89.98
2023-03-06T02:00:49.330Z,89.98
2023-03-06T02:01:49.213Z,90.85
2023-03-06T02:02:49.226Z,90.95
2023-03-06T02:03:49.211Z,91.06
2023-03-06T02:04:49.195Z,91.89
2023-03-06T02:05:49.198Z,91.78
2023-03-06T02:06:49.192Z,91.58
2023-03-06T02:07:49.194Z,91.33
2023-03-06T02:08:49.188Z,90.91
2023-03-06T02:09:49.160Z,90.19
2023-03-06T02:10:49.174Z,89.76
2023-03-06T02:11:49.242Z,90.08
2023-03-06T02:12:49.154Z,89.83
2023-03-06T02:13:49.148Z,89.52
2023-03-06T02:14:49.145Z,89.52
2023-03-06T02:15:49.141Z,89.31
2023-03-06T02:16:49.192Z,89.31
2023-03-06T02:17:49.140Z,89.73
2023-03-06T02:18:49.107Z,89.73
2023-03-06T02:19:49.098Z,89.62
2023-03-06T02:20:49.107Z,89.83
2023-03-06T02:21:49.088Z,89.73
2023-03-06T02:22:49.077Z,89.52
2023-03-06T02:23:49.089Z,89.31
2023-03-06T02:24:49.063Z,90.08
2023-03-06T02:25:49.060Z,89.52
2023-03-06T02:26:49.068Z,89.94
2023-03-06T02:27:49.055Z,89.52
2023-03-06T02:28:49.058Z,90.14
2023-03-06T02:29:49.028Z,89.31
2023-03-06T02:30:49.100Z,89.62
2023-03-06T02:31:49.014Z,88.68
2023-03-06T02:32:49.009Z,88.06
2023-03-06T02:33:49.030Z,88.23
2023-03-06T02:34:48.997Z,88.06
2023-03-06T02:35:49.008Z,89.00
2023-03-06T02:36:49.021Z,88.23
2023-03-06T02:37:48.990Z,88.54
2023-03-06T02:38:48.997Z,88.33
2023-03-06T02:39:48.975Z,88.33
2023-03-06T02:40:48.969Z,88.02
2023-03-06T02:41:48.965Z,88.23
2023-03-06T02:42:48.977Z,88.37
2023-03-06T02:43:48.956Z,88.37
2023-03-06T02:44:48.936Z,88.64
2023-03-06T02:45:49.019Z,88.43
2023-03-06T02:46:48.922Z,87.98
2023-03-06T02:47:48.920Z,88.33
2023-03-06T02:48:48.909Z,88.43
2023-03-06T02:49:48.915Z,88.64
2023-03-06T02:50:48.905Z,88.33
2023-03-06T02:51:48.886Z,88.02
2023-03-06T02:52:48.876Z,87.92
2023-03-06T02:53:48.886Z,88.23
2023-03-06T02:54:48.876Z,88.43
2023-03-06T02:55:48.867Z,88.33
2023-03-06T02:56:48.856Z,88.54
2023-03-06T02:57:48.865Z,88.64
2023-03-06T02:58:48.838Z,88.23
2023-03-06T02:59:48.836Z,87.98
2023-03-06T03:00:48.817Z,88.02
2023-03-06T03:01:48.918Z,88.02
2023-03-06T03:02:48.833Z,87.77
2023-03-06T03:03:48.810Z,87.88
2023-03-06T03:04:48.841Z,87.56
2023-03-06T03:05:48.779Z,87.71
2023-03-06T03:06:48.813Z,87.77
2023-03-06T03:07:48.772Z,87.35
2023-03-06T03:08:48.792Z,87.50
2023-03-06T03:09:48.786Z,87.35
2023-03-06T03:10:48.755Z,86.83
2023-03-06T03:11:48.737Z,86.94
2023-03-06T03:12:48.738Z,87.25
2023-03-06T03:13:48.727Z,87.46
2023-03-06T03:14:48.735Z,87.66
2023-03-06T03:15:48.791Z,87.66
2023-03-06T03:16:48.715Z,88.02
2023-03-06T03:17:48.704Z,88.29
2023-03-06T03:18:48.705Z,88.54
2023-03-06T03:19:48.689Z,87.98
2023-03-06T03:20:48.715Z,87.88
2023-03-06T03:21:48.680Z,87.56
2023-03-06T03:22:48.680Z,87.66
2023-03-06T03:23:48.682Z,87.77
2023-03-06T03:24:48.686Z,87.88
2023-03-06T03:25:48.646Z,88.09
2023-03-06T03:26:48.675Z,87.66
2023-03-06T03:27:48.650Z,86.94
2023-03-06T03:28:48.642Z,87.46
2023-03-06T03:29:48.634Z,87.77
2023-03-06T03:30:48.675Z,87.98
2023-03-06T03:31:48.643Z,87.88
2023-03-06T03:32:48.638Z,87.77
2023-03-06T03:33:48.616Z,87.66
2023-03-06T03:34:48.610Z,87.77
2023-03-06T03:35:48.657Z,87.35
2023-03-06T03:36:48.606Z,87.66
2023-03-06T03:37:48.607Z,87.66
2023-03-06T03:38:48.582Z,87.98
2023-03-06T03:39:48.568Z,87.88
2023-03-06T03:40:48.560Z,87.66
2023-03-06T03:41:48.564Z,87.56
2023-03-06T03:42:48.557Z,87.56
2023-03-06T03:43:48.552Z,87.66
2023-03-06T03:44:48.554Z,87.66
2023-03-06T03:45:48.517Z,88.09
2023-03-06T03:46:48.584Z,87.66
2023-03-06T03:47:48.556Z,87.63
2023-03-06T03:48:48.511Z,88.09
2023-03-06T03:49:48.496Z,87.98
2023-03-06T03:50:48.491Z,87.77
2023-03-06T03:51:48.482Z,87.98
2023-03-06T03:52:48.486Z,87.56
2023-03-06T03:53:48.484Z,87.63
2023-03-06T03:54:48.481Z,87.63
2023-03-06T03:55:48.470Z,87.52
2023-03-06T03:56:48.454Z,88.09
2023-03-06T03:57:48.459Z,87.88
2023-03-06T03:58:48.464Z,88.29
2023-03-06T03:59:48.425Z,88.09
2023-03-06T04:00:48.428Z,88.40
2023-03-06T04:01:48.472Z,88.29
2023-03-06T04:02:48.425Z,88.40
2023-03-06T04:03:48.423Z,88.60
2023-03-06T04:04:48.401Z,88.50
2023-03-06T04:05:48.428Z,88.29
2023-03-06T04:06:48.372Z,88.19
2023-03-06T04:07:48.375Z,88.29
2023-03-06T04:08:48.370Z,88.29
2023-03-06T04:09:48.357Z,88.29
2023-03-06T04:10:48.367Z,88.40
2023-03-06T04:11:48.346Z,88.40
2023-03-06T04:12:48.349Z,87.84
2023-03-06T04:13:48.328Z,88.50
2023-03-06T04:14:48.316Z,87.98
2023-03-06T04:15:48.330Z,88.64
2023-03-06T04:16:48.312Z,89.48
2023-03-06T04:17:48.307Z,89.12
2023-03-06T04:18:48.302Z,89.37
2023-03-06T04:19:48.287Z,90.00
2023-03-06T04:20:48.300Z,89.37
2023-03-06T04:21:48.277Z,89.27
2023-03-06T04:22:48.274Z,89.64
2023-03-06T04:23:48.278Z,89.64
2023-03-06T04:24:48.257Z,88.81
2023-03-06T04:25:48.248Z,88.60
2023-03-06T04:26:48.250Z,88.40
2023-03-06T04:27:48.238Z,89.58
2023-03-06T04:28:48.247Z,89.33
2023-03-06T04:29:48.223Z,89.54
2023-03-06T04:30:48.244Z,89.48
2023-03-06T04:31:48.246Z,89.69
2023-03-06T04:32:48.205Z,88.96
2023-03-06T04:33:48.236Z,89.33
2023-03-06T04:34:48.198Z,89.79
2023-03-06T04:35:48.232Z,89.33
2023-03-06T04:36:48.183Z,89.37
2023-03-06T04:37:48.184Z,89.43
2023-03-06T04:38:48.211Z,89.27
2023-03-06T04:39:48.176Z,89.69
2023-03-06T04:40:48.156Z,90.00
2023-03-06T04:41:48.155Z,89.79
2023-03-06T04:42:48.140Z,90.31
2023-03-06T04:43:48.161Z,90.10
2023-03-06T04:44:48.129Z,89.89
2023-03-06T04:45:48.165Z,89.75
2023-03-06T04:46:48.123Z,90.20
2023-03-06T04:47:48.117Z,89.64
2023-03-06T04:48:48.113Z,90.00
2023-03-06T04:49:48.117Z,89.64
2023-03-06T04:50:48.087Z,89.48
2023-03-06T04:51:48.097Z,89.58
2023-03-06T04:52:48.075Z,89.37
2023-03-06T04:53:48.075Z,89.58
2023-03-06T04:54:48.114Z,89.69
2023-03-06T04:55:48.061Z,90.20
2023-03-06T04:56:48.050Z,89.69
2023-03-06T04:57:48.062Z,90.31
2023-03-06T04:58:48.041Z,90.31
2023-03-06T04:59:48.058Z,90.20
2023-03-06T05:00:48.037Z,90.20
2023-03-06T05:01:48.046Z,90.10
2023-03-06T05:02:48.030Z,90.41
2023-03-06T05:03:48.006Z,90.10
2023-03-06T05:04:48.000Z,90.41
2023-03-06T05:05:48.016Z,90.72
2023-03-06T05:06:47.982Z,90.62
2023-03-06T05:07:47.981Z,90.83
2023-03-06T05:08:47.984Z,90.93
2023-03-06T05:09:47.971Z,90.93
2023-03-06T05:10:47.963Z,90.52
2023-03-06T05:11:47.975Z,90.52
2023-03-06T05:12:47.945Z,89.58
2023-03-06T05:13:47.961Z,89.69
2023-03-06T05:14:48.186Z,90.10
2023-03-06T05:15:47.923Z,90.10
2023-03-06T05:16:47.960Z,90.16
2023-03-06T05:17:47.949Z,90.26
2023-03-06T05:18:50.465Z,90.62
2023-03-06T05:19:47.910Z,90.62
2023-03-06T05:20:47.902Z,90.41
2023-03-06T05:21:47.883Z,90.31
2023-03-06T05:22:47.909Z,90.20
2023-03-06T05:23:47.869Z,90.20
2023-03-06T05:24:47.877Z,90.10
2023-03-06T05:25:47.856Z,90.20
2023-03-06T05:26:47.855Z,90.52
2023-03-06T05:27:47.845Z,90.06
2023-03-06T05:28:47.868Z,90.26
2023-03-06T05:29:47.870Z,89.54
2023-03-06T05:30:47.831Z,90.00
2023-03-06T05:31:47.871Z,90.20
2023-03-06T05:32:47.924Z,89.79
2023-03-06T05:33:47.853Z,90.10
2023-03-06T05:34:47.830Z,89.54
2023-03-06T05:35:47.874Z,90.00
2023-03-06T05:36:47.827Z,90.52
2023-03-06T05:37:47.796Z,90.31
2023-03-06T05:38:47.779Z,90.62
2023-03-06T05:39:47.769Z,90.41
2023-03-06T05:40:47.784Z,90.10
2023-03-06T05:41:47.767Z,89.54
2023-03-06T05:42:47.777Z,89.69
2023-03-06T05:43:47.767Z,89.95
2023-03-06T05:44:47.761Z,89.69
2023-03-06T05:45:47.784Z,90.31
2023-03-06T05:46:47.760Z,89.89
2023-03-06T05:47:47.756Z,90.20
2023-03-06T05:48:47.739Z,89.95
2023-03-06T05:49:47.716Z,89.75
2023-03-06T05:50:47.738Z,89.79
2023-03-06T05:51:47.741Z,89.95
2023-03-06T05:52:47.707Z,89.95
2023-03-06T05:53:47.704Z,89.85
2023-03-06T05:54:47.695Z,89.75
2023-03-06T05:55:47.679Z,89.64
2023-03-06T05:56:47.687Z,89.33
2023-03-06T05:57:47.689Z,89.64
2023-03-06T05:58:47.683Z,89.95
2023-03-06T05:59:47.664Z,89.79
2023-03-06T06:00:47.658Z,89.54
2023-03-06T06:01:47.669Z,90.20
2023-03-06T06:02:47.640Z,90.10
2023-03-06T06:03:47.665Z,90.10
2023-03-06T06:04:47.621Z,90.62
2023-03-06T06:05:47.621Z,90.62
2023-03-06T06:06:47.634Z,90.72
2023-03-06T06:07:47.603Z,90.62
2023-03-06T06:08:47.596Z,90.83
2023-03-06T06:09:47.588Z,90.41
2023-03-06T06:10:47.591Z,90.72
2023-03-06T06:11:47.565Z,91.25
2023-03-06T06:12:47.564Z,91.04
2023-03-06T06:13:47.573Z,90.93
2023-03-06T06:14:47.550Z,90.72
2023-03-06T06:15:47.567Z,90.62
2023-03-06T06:16:47.562Z,90.93
2023-03-06T06:17:47.533Z,90.72
2023-03-06T06:18:47.545Z,90.72
2023-03-06T06:19:47.524Z,90.41
2023-03-06T06:20:47.507Z,90.16
2023-03-06T06:21:47.499Z,90.41
2023-03-06T06:22:47.548Z,90.37
2023-03-06T06:23:54.519Z,90.62
2023-03-06T06:24:47.499Z,90.26
2023-03-06T06:25:47.489Z,90.47
2023-03-06T06:26:47.475Z,90.62
2023-03-06T06:27:47.480Z,91.04
2023-03-06T06:28:47.485Z,90.41
2023-03-06T06:29:47.463Z,90.69
2023-03-06T06:30:47.475Z,90.89
2023-03-06T06:31:47.446Z,90.72
2023-03-06T06:32:47.466Z,90.69
2023-03-06T06:33:47.439Z,90.93
2023-03-06T06:34:47.461Z,90.10
2023-03-06T06:35:47.438Z,90.69
2023-03-06T06:36:47.426Z,90.89
2023-03-06T06:37:47.410Z,90.93
2023-03-06T06:38:47.407Z,91.04
2023-03-06T06:39:47.396Z,90.10
2023-03-06T06:41:19.017Z,90.06
2023-03-06T06:41:59.754Z,89.43
2023-03-06T06:42:48.398Z,89.54
2023-03-06T06:43:47.370Z,89.75
2023-03-06T06:44:47.374Z,90.16
2023-03-06T06:45:48.955Z,89.85
2023-03-06T06:47:21.331Z,90.10
2023-03-06T06:47:48.364Z,89.75
2023-03-06T06:48:47.355Z,89.64
2023-03-06T06:49:47.391Z,89.54
2023-03-06T06:50:47.330Z,89.70
2023-03-06T06:51:47.329Z,88.40
2023-03-06T06:52:47.317Z,88.04
2023-03-06T06:53:47.314Z,88.15
2023-03-06T06:54:47.334Z,88.15
2023-03-06T06:55:47.295Z,88.42
2023-03-06T06:56:47.299Z,88.00
2023-03-06T06:57:47.292Z,88.31
2023-03-06T06:58:47.283Z,88.04
2023-03-06T06:59:47.280Z,87.79
2023-03-06T07:00:47.269Z,87.84
2023-03-06T07:01:47.301Z,88.35
2023-03-06T07:02:47.271Z,88.04
2023-03-06T07:03:47.266Z,88.04
2023-03-06T07:05:02.623Z,87.94
2023-03-06T07:05:48.239Z,88.25
2023-03-06T07:06:47.228Z,88.42
2023-03-06T07:07:47.243Z,88.15
2023-03-06T07:08:47.217Z,87.48
2023-03-06T07:09:47.213Z,86.96
2023-03-06T07:10:47.209Z,86.55
2023-03-06T07:11:47.206Z,86.34
2023-03-06T07:12:47.219Z,86.41
2023-03-06T07:13:47.209Z,86.93
2023-03-06T07:14:47.184Z,86.30
2023-03-06T07:15:47.188Z,85.78
2023-03-06T07:16:47.167Z,85.78
2023-03-06T07:17:49.564Z,85.68
2023-03-06T07:18:47.171Z,85.68
2023-03-06T07:19:47.152Z,85.88
2023-03-06T07:20:47.175Z,85.68
2023-03-06T07:21:47.156Z,84.95
2023-03-06T07:22:51.233Z,84.95
2023-03-06T07:23:47.139Z,85.57
2023-03-06T07:24:47.137Z,85.72
2023-03-06T07:25:47.113Z,85.57
2023-03-06T07:26:47.111Z,85.99
2023-03-06T07:27:53.360Z,85.26
2023-03-06T07:28:52.654Z,85.47
2023-03-06T07:29:47.100Z,85.51
2023-03-06T07:30:47.085Z,86.24
2023-03-06T07:31:47.071Z,85.78
2023-03-06T07:32:47.075Z,85.51
2023-03-06T07:33:47.064Z,85.68
2023-03-06T07:34:47.073Z,85.68
2023-03-06T07:35:47.052Z,86.19
2023-03-06T07:36:47.067Z,85.61
2023-03-06T07:37:47.053Z,86.03
2023-03-06T07:38:47.034Z,85.82
2023-03-06T07:39:47.061Z,85.82
2023-03-06T07:40:47.030Z,85.82
2023-03-06T07:41:47.039Z,86.13
2023-03-06T07:42:47.017Z,85.82
2023-03-06T07:43:47.001Z,85.93
2023-03-06T07:44:47.029Z,85.93
2023-03-06T07:45:47.019Z,85.93
2023-03-06T07:46:47.068Z,86.55
2023-03-06T07:47:46.984Z,86.34
2023-03-06T07:48:46.970Z,85.78
2023-03-06T07:49:46.966Z,85.93
2023-03-06T07:50:46.968Z,85.20
2023-03-06T07:51:46.967Z,84.99
2023-03-06T07:52:46.976Z,85.10
2023-03-06T07:53:46.942Z,84.89
2023-03-06T07:54:46.935Z,85.30
2023-03-06T07:55:46.932Z,85.61
2023-03-06T07:56:46.922Z,85.05
2023-03-06T07:57:46.938Z,84.95
2023-03-06T07:58:46.925Z,85.05
2023-03-06T07:59:46.905Z,84.84
2023-03-06T08:00:46.903Z,83.60
2023-03-06T08:01:46.890Z,84.22
2023-03-06T08:02:46.924Z,84.43
2023-03-06T08:03:46.976Z,84.53
2023-03-06T08:04:46.888Z,84.84
2023-03-06T08:05:46.884Z,84.74
2023-03-06T08:06:46.878Z,84.70
2023-03-06T08:07:46.853Z,84.60
2023-03-06T08:08:46.862Z,83.87
2023-03-06T08:09:46.876Z,83.56
2023-03-06T08:10:46.838Z,83.46
2023-03-06T08:11:46.826Z,83.67
2023-03-06T08:12:46.822Z,83.25
2023-03-06T08:13:46.825Z,83.50
2023-03-06T08:14:46.825Z,82.98
2023-03-06T08:15:46.797Z,82.84
2023-03-06T08:16:46.802Z,83.39
2023-03-06T08:17:46.805Z,83.46
2023-03-06T08:18:46.807Z,83.36
2023-03-06T08:19:46.807Z,83.04
2023-03-06T08:20:46.774Z,83.04
2023-03-06T08:21:46.763Z,82.73
2023-03-06T08:22:46.751Z,83.15
2023-03-06T08:23:46.760Z,82.98
2023-03-06T08:24:46.744Z,83.04
2023-03-06T08:25:46.739Z,83.04
2023-03-06T08:26:46.752Z,83.50
2023-03-06T08:27:46.732Z,82.94
2023-03-06T08:28:46.774Z,82.63
2023-03-06T08:29:46.729Z,82.15
2023-03-06T08:30:46.710Z,82.53
2023-03-06T08:31:46.733Z,83.08
2023-03-06T08:32:46.705Z,83.04
2023-03-06T08:33:46.692Z,83.15
2023-03-06T08:34:46.717Z,82.01
2023-03-06T08:35:46.698Z,81.87
2023-03-06T08:36:46.678Z,81.66
2023-03-06T08:37:46.668Z,82.07
2023-03-06T08:38:46.696Z,81.56
2023-03-06T08:39:46.660Z,81.20
2023-03-06T08:40:46.687Z,80.44
2023-03-06T08:41:46.656Z,80.85
2023-03-06T08:42:46.653Z,80.54
2023-03-06T08:43:46.648Z,79.92
2023-03-06T08:44:46.628Z,79.61
2023-03-06T08:45:46.636Z,79.82
2023-03-06T08:46:46.633Z,80.02
2023-03-06T08:47:46.616Z,79.51
2023-03-06T08:48:46.621Z,80.37
2023-03-06T08:49:46.625Z,80.23
2023-03-06T08:50:46.600Z,80.23
2023-03-06T08:51:46.584Z,80.02
2023-03-06T08:52:46.578Z,80.33
2023-03-06T08:53:46.566Z,79.06
2023-03-06T08:54:46.574Z,79.27
2023-03-06T08:55:46.569Z,79.27
2023-03-06T08:56:46.546Z,79.37
2023-03-06T08:57:46.544Z,79.23
2023-03-06T08:58:46.555Z,78.85
2023-03-06T08:59:46.583Z,78.96
2023-03-06T09:00:46.663Z,78.81
2023-03-06T09:01:46.551Z,78.09
2023-03-06T09:02:46.528Z,76.91
2023-03-06T09:03:46.507Z,77.26
2023-03-06T09:04:46.522Z,77.64
2023-03-06T09:05:46.493Z,77.36
2023-03-06T09:06:46.512Z,77.36
2023-03-06T09:07:46.496Z,77.57
2023-03-06T09:08:46.498Z,77.29
2023-03-06T09:09:46.519Z,77.78
2023-03-06T09:10:46.555Z,77.81
2023-03-06T09:11:46.477Z,78.23
2023-03-06T09:12:50.894Z,78.09
2023-03-06T09:13:47.451Z,78.12
2023-03-06T09:14:46.433Z,78.44
2023-03-06T09:15:46.432Z,77.92
2023-03-06T09:16:46.467Z,77.61
2023-03-06T09:17:46.457Z,78.23
2023-03-06T09:18:46.445Z,77.92
2023-03-06T09:19:46.412Z,77.92
2023-03-06T09:20:46.402Z,77.61
2023-03-06T09:21:46.395Z,77.81
2023-03-06T09:22:46.398Z,78.33
2023-03-06T09:23:46.391Z,77.92
2023-03-06T09:24:46.406Z,77.92
2023-03-06T09:25:46.386Z,77.40
2023-03-06T09:26:47.644Z,77.50
2023-03-06T09:27:46.367Z,77.40
2023-03-06T09:28:46.361Z,77.67
2023-03-06T09:29:46.344Z,77.57
2023-03-06T09:30:46.410Z,77.61
2023-03-06T09:31:46.338Z,76.84
2023-03-06T09:32:46.325Z,76.74
2023-03-06T09:33:46.346Z,76.23
2023-03-06T09:34:46.340Z,75.67
2023-03-06T09:35:46.333Z,75.22
2023-03-06T09:36:56.735Z,73.91
2023-03-06T09:37:46.299Z,71.16
2023-03-06T09:38:46.294Z,68.80
2023-03-06T09:39:46.280Z,67.70
2023-03-06T09:40:46.287Z,68.32
2023-03-06T09:41:46.295Z,68.93
2023-03-06T09:42:46.273Z,67.70
2023-03-06T09:43:46.264Z,65.95
2023-03-06T09:44:46.254Z,64.48
2023-03-06T09:45:46.288Z,65.03
2023-03-06T09:46:46.248Z,64.90
2023-03-06T09:47:46.251Z,64.76
2023-03-06T09:48:46.228Z,60.66
2023-03-06T09:49:46.229Z,57.99
2023-03-06T09:50:46.226Z,57.38
2023-03-06T09:51:46.215Z,58.83
2023-03-06T09:52:46.236Z,60.52
2023-03-06T09:53:46.202Z,61.47
2023-03-06T09:54:46.205Z,62.15
2023-03-06T09:55:46.192Z,63.31
2023-03-06T09:56:46.199Z,63.65
2023-03-06T09:57:46.189Z,65.02
2023-03-06T09:58:46.167Z,65.36
2023-03-06T09:59:46.174Z,65.67
2023-03-06T10:00:46.175Z,66.01
2023-03-06T10:01:46.150Z,65.18
2023-03-06T10:02:46.288Z,66.45
2023-03-06T10:03:46.141Z,67.10
2023-03-06T10:04:46.210Z,65.79
2023-03-06T10:05:46.132Z,67.34
2023-03-06T10:06:46.148Z,65.89
2023-03-06T10:07:46.130Z,66.64
2023-03-06T10:08:46.109Z,68.40
2023-03-06T10:09:46.118Z,67.78
2023-03-06T10:10:46.132Z,68.19
2023-03-06T10:11:46.098Z,68.09
2023-03-06T10:12:46.111Z,67.78
2023-03-06T10:13:46.090Z,66.75
2023-03-06T10:14:49.004Z,67.19
2023-03-06T10:15:46.122Z,66.78
2023-03-06T10:16:46.085Z,67.09
2023-03-06T10:17:46.086Z,67.12
2023-03-06T10:18:46.078Z,67.77
2023-03-06T10:19:46.058Z,68.49
2023-03-06T10:20:46.079Z,68.91
2023-03-06T10:21:46.056Z,67.77
2023-03-06T10:22:55.389Z,68.60
2023-03-06T10:23:47.054Z,69.35
2023-03-06T10:24:46.031Z,69.46
2023-03-06T10:25:46.028Z,69.56
2023-03-06T10:26:46.122Z,70.29
2023-03-06T10:27:46.020Z,71.01
2023-03-06T10:28:46.027Z,70.60
2023-03-06T10:30:01.196Z,70.70
2023-03-06T10:30:47.036Z,71.33
2023-03-06T10:31:46.006Z,71.43
2023-03-06T10:32:49.048Z,71.22
2023-03-06T10:33:45.982Z,71.81
2023-03-06T10:34:45.977Z,71.50
2023-03-06T10:35:46.046Z,71.22
2023-03-06T10:36:45.964Z,71.53
2023-03-06T10:37:45.978Z,72.12
2023-03-06T10:38:45.990Z,71.73
2023-03-06T10:39:45.957Z,71.73
2023-03-06T10:40:45.943Z,71.63
2023-03-06T10:41:46.271Z,71.63
2023-03-06T10:42:45.929Z,71.53
2023-03-06T10:43:45.921Z,72.19
2023-03-06T10:44:45.953Z,71.77
2023-03-06T10:45:49.258Z,73.32
2023-03-06T10:46:45.946Z,73.11
2023-03-06T10:47:45.897Z,73.22
2023-03-06T10:48:45.901Z,73.01
2023-03-06T10:49:45.897Z,73.01
2023-03-06T10:50:45.881Z,73.53
2023-03-06T10:51:45.887Z,72.81
2023-03-06T10:52:45.861Z,72.29
2023-03-06T10:53:45.864Z,72.88
2023-03-06T10:54:45.857Z,72.88
2023-03-06T10:55:45.862Z,72.46
2023-03-06T10:56:45.855Z,72.46
2023-03-06T10:57:45.850Z,72.67
2023-03-06T10:58:45.842Z,72.77
2023-03-06T10:59:45.822Z,72.22
2023-03-06T11:00:45.822Z,72.85
2023-03-06T11:01:45.896Z,72.64
2023-03-06T11:02:45.816Z,72.02
2023-03-06T11:03:45.795Z,72.43
2023-03-06T11:04:45.873Z,71.53
2023-03-06T11:05:45.780Z,71.81
2023-03-06T11:06:45.808Z,71.94
2023-03-06T11:07:45.785Z,72.15
2023-03-06T11:08:45.765Z,71.53
2023-03-06T11:09:45.761Z,71.94
2023-03-06T11:10:45.755Z,72.46
2023-03-06T11:11:45.759Z,71.88
2023-03-06T11:12:45.741Z,72.91
2023-03-06T11:13:45.755Z,72.74
2023-03-06T11:14:45.732Z,71.80
2023-03-06T11:15:45.759Z,72.39
2023-03-06T11:16:45.719Z,72.11
2023-03-06T11:17:45.712Z,73.57
2023-03-06T11:18:45.732Z,73.08
2023-03-06T11:19:45.705Z,73.46
2023-03-06T11:20:51.842Z,73.05
2023-03-06T11:21:46.692Z,74.32
2023-03-06T11:22:47.532Z,74.22
2023-03-06T11:23:45.693Z,73.60
2023-03-06T11:24:45.679Z,73.08
2023-03-06T11:25:45.660Z,73.49
2023-03-06T11:26:45.652Z,73.15
2023-03-06T11:27:45.662Z,73.39
2023-03-06T11:28:45.663Z,73.80
2023-03-06T11:29:45.638Z,74.53
2023-03-06T11:30:45.673Z,74.43
2023-03-06T11:31:45.734Z,73.88
2023-03-06T11:32:45.614Z,73.74
2023-03-06T11:33:45.618Z,74.08
2023-03-06T11:34:45.625Z,73.43
2023-03-06T11:35:45.641Z,73.53
2023-03-06T11:36:45.614Z,72.88
2023-03-06T11:37:45.594Z,73.08
2023-03-06T11:38:45.597Z,72.67
2023-03-06T11:39:45.570Z,72.74
2023-03-06T11:40:45.581Z,72.25
2023-03-06T11:41:45.585Z,71.94
2023-03-06T11:42:45.558Z,72.02
2023-03-06T11:43:45.549Z,72.67
2023-03-06T11:44:45.536Z,72.25
2023-03-06T11:45:45.546Z,72.46
2023-03-06T11:46:45.594Z,72.88
2023-03-06T11:47:45.539Z,72.88
2023-03-06T11:48:45.515Z,73.29
2023-03-06T11:49:45.512Z,72.88
2023-03-06T11:50:45.528Z,71.88
2023-03-06T11:51:45.498Z,72.15
2023-03-06T11:52:45.507Z,71.94
2023-03-06T11:53:45.509Z,71.84
2023-03-06T11:54:45.482Z,72.15
2023-03-06T11:55:45.482Z,72.05
2023-03-06T11:56:45.479Z,70.29
2023-03-06T11:57:45.479Z,71.12
2023-03-06T11:58:45.460Z,70.57
2023-03-06T11:59:45.457Z,71.39
2023-03-06T12:00:45.491Z,71.36
2023-03-06T12:01:45.465Z,70.81
2023-03-06T12:02:45.491Z,70.61
2023-03-06T12:03:45.437Z,69.47
2023-03-06T12:04:45.427Z,69.54
2023-03-06T12:05:45.475Z,69.33
2023-03-06T12:06:45.422Z,68.71
2023-03-06T12:07:45.414Z,68.99
2023-03-06T12:08:45.418Z,68.06
2023-03-06T12:09:45.431Z,68.68
2023-03-06T12:10:51.306Z,68.78
2023-03-06T12:11:46.414Z,67.44
2023-03-06T12:12:45.380Z,67.96
2023-03-06T12:13:45.379Z,67.85
2023-03-06T12:14:45.367Z,68.27
2023-03-06T12:15:45.358Z,67.78
2023-03-06T12:16:45.408Z,67.99
2023-03-06T12:17:45.363Z,67.58
2023-03-06T12:18:45.366Z,67.50
2023-03-06T12:19:45.329Z,68.33
2023-03-06T12:20:45.341Z,68.54
2023-03-06T12:21:45.336Z,68.88
2023-03-06T12:22:53.376Z,69.40
2023-03-06T12:23:46.315Z,69.64
2023-03-06T12:24:45.304Z,69.77
2023-03-06T12:27:10.937Z,70.70
2023-03-06T12:28:10.927Z,70.91
2023-03-06T12:29:10.944Z,69.39
2023-03-06T12:30:10.918Z,70.53
2023-03-06T12:31:10.958Z,70.32
2023-03-06T12:32:11.050Z,70.25
2023-03-06T12:33:10.896Z,69.90
2023-03-06T12:34:10.894Z,70.01
2023-03-06T12:35:10.887Z,70.11
2023-03-06T12:36:10.887Z,69.60
2023-03-06T12:37:10.907Z,68.04
2023-03-06T12:38:10.868Z,69.11
2023-03-06T12:39:10.863Z,69.08
2023-03-06T12:40:10.867Z,69.29
2023-03-06T12:41:10.848Z,68.87
2023-03-06T12:42:17.866Z,68.84
2023-03-06T12:43:11.837Z,68.12
2023-03-06T12:44:10.840Z,68.01
2023-03-06T12:45:10.840Z,68.32
2023-03-06T12:46:10.864Z,69.15
2023-03-06T12:47:10.823Z,68.94
2023-03-06T12:48:10.812Z,69.32
2023-03-06T12:49:12.354Z,68.32
2023-03-06T12:50:10.809Z,67.80
2023-03-06T12:51:10.789Z,68.43
2023-03-06T12:52:11.055Z,68.19
2023-03-06T12:53:10.807Z,67.46
2023-03-06T12:54:10.786Z,68.19
2023-03-06T12:55:10.813Z,69.32